CDT,Max TemperatureF,Mean TemperatureF,Min TemperatureF,Max Dew PointF,MeanDew PointF,Min DewpointF,Max Humidity, Mean Humidity, Min Humidity, Max Sea Level PressureIn, Mean Sea Level PressureIn, Min Sea Level PressureIn, Max VisibilityMiles, Mean VisibilityMiles, Min VisibilityMiles, Max Wind SpeedMPH, Mean Wind SpeedMPH, Max Gust SpeedMPH,PrecipitationIn, CloudCover, Events, WindDirDegrees
2012-10-1,71,57,43,41,32,25,63,41,19,30.08,30.00,29.92,10,10,6,23,10,32,0.00,2,,311
2012-10-2,80,60,39,39,32,27,64,40,16,29.90,29.73,29.60,10,10,6,38,15,48,0.00,1,,213
2012-10-3,54,48,41,45,39,34,89,73,56,30.06,29.96,29.76,10,10,4,30,16,37,0.09,6,Rain,353
2012-10-4,40,37,33,38,33,29,100,88,75,30.17,30.05,29.95,10,6,0,32,25,41,0.38,8,Fog-Rain-Snow,329
2012-10-5,38,35,32,34,31,28,96,89,82,30.32,30.20,30.12,10,7,2,30,19,35,0.06,8,Snow,326
2012-10-6,47,38,28,32,29,25,92,69,45,30.38,30.29,30.11,10,10,10,15,9,18,0.00,3,,283
2012-10-7,56,44,31,35,29,24,85,60,35,30.09,29.88,29.72,10,10,10,18,9,23,0.00,5,,232
2012-10-8,51,44,36,43,38,32,93,82,71,29.71,29.57,29.47,10,10,8,20,8,26,0.04,7,Rain,250
2012-10-9,42,37,31,35,31,28,96,78,60,30.01,29.82,29.63,10,10,7,28,13,33,0.02,7,Rain-Snow,313
2012-10-10,45,37,28,36,32,26,100,79,58,30.01,29.96,29.88,10,10,9,15,5,17,0.05,7,Rain,265
2012-10-11,45,34,22,34,26,19,96,69,41,30.40,30.23,29.98,10,10,10,21,8,26,0.00,3,,318
2012-10-12,52,38,24,27,23,19,88,58,28,30.39,30.13,29.78,10,10,10,32,15,40,0.00,2,,173
2012-10-13,59,48,36,35,31,23,82,61,39,29.87,29.71,29.65,10,10,10,20,11,23,0.00,1,,314
2012-10-14,53,42,31,37,35,30,96,73,50,29.97,29.93,29.87,10,10,10,17,8,21,T,3,,339
2012-10-15,64,49,33,40,36,31,96,70,43,29.89,29.71,29.50,10,10,9,23,12,32,T,5,Rain,164
2012-10-16,69,54,39,47,44,37,92,68,44,29.51,29.40,29.23,10,10,8,10,6,12,0.00,6,,201
2012-10-17,55,51,47,51,47,44,96,84,71,29.21,29.11,29.06,10,9,5,28,13,36,0.76,8,Rain,273
2012-10-18,50,46,41,48,44,39,93,90,86,29.68,29.33,29.08,10,7,2,41,26,52,0.26,8,Rain,349
2012-10-19,44,42,40,41,39,37,93,88,82,29.78,29.74,29.68,10,8,2,35,14,41,0.02,8,Rain,343
2012-10-20,51,46,40,45,41,39,100,87,74,29.73,29.67,29.59,10,10,4,23,12,29,0.00,7,,176
2012-10-21,51,45,38,47,42,36,100,87,74,30.06,29.85,29.64,10,9,6,21,9,24,0.10,7,Rain,316
2012-10-22,46,41,36,40,37,33,92,82,71,30.13,30.06,29.89,10,10,10,17,9,21,0.03,7,,19
2012-10-23,51,48,44,52,47,40,100,92,83,29.88,29.71,29.60,10,5,0,20,10,25,0.33,8,Rain,139
2012-10-24,46,40,33,45,35,27,92,83,73,30.02,29.92,29.73,10,10,10,18,10,23,0.00,8,,295
2012-10-25,40,36,32,29,27,25,85,70,54,30.10,30.00,29.96,10,10,10,28,14,35,0.00,7,,295
2012-10-26,38,33,27,26,23,19,85,69,52,30.29,30.23,30.09,10,10,10,25,11,32,0.00,7,,282
2012-10-27,33,28,22,24,19,14,88,66,43,30.35,30.31,30.27,10,10,10,10,5,13,0.00,6,,252
2012-10-28,38,28,17,27,21,16,92,73,54,30.35,30.29,30.21,10,8,0,14,6,17,T,5,Fog,76
2012-10-29,50,41,32,34,31,27,89,73,56,30.24,30.17,30.12,10,10,5,18,11,22,T,6,Rain-Snow,117
2012-10-30,45,38,31,32,30,27,82,68,53,30.18,30.13,30.08,10,10,10,20,11,24,0.00,7,,144
2012-10-31,49,42,34,39,34,30,86,73,60,30.10,30.01,29.93,10,10,8,26,13,32,T,8,,328